CYRJ

Roberval Airport

Roberval, Quebec, Canada
METAR CYRJ 151900Z 24010KT 40SM FEW030 FEW220 M14/M21 A2979 RMK SC1CI1 SC TR CI TR SLP108
Observed Flight Rules
Dec-15 @ 19:00 UTC (54 minutes ago) Visual Flight Rules
Wind Visibility Clouds
240° at 10 knots 40 miles
  • Few at 3,000' AGL
  • Few at 22,000' AGL
Temperatures Readings
Current -14°C / 7°F
Dewpoint -21°C / -6°F
Humidity 56%
Altimeter 29.79" Hg
Pressure 1010.8 hPa
Elevation 179
METAR CYRJ 151900Z 24010KT 40SM FEW030 FEW220 M14/M21 A2979 RMK SC1CI1 SC TR CI TR SLP108
Observed Flight Rules
Dec-15 @ 19:00 UTC
(54 minutes ago)
VFR
Wind Visibility
240° at 10 knots 40 miles
Clouds
  • Few at 3,000' AGL
  • Few at 22,000' AGL
Temperature Dewpoint
-14°C / 7°F -21°C / -6°F
Humidity Altimeter Pressure
56% 29.79" Hg 1010.8 hPa